createdAt,value
2023-04-01T00:01:26.816Z,8.90
2023-04-01T00:04:04.421Z,10.05
2023-04-01T00:07:10.234Z,9.30
2023-04-01T00:09:53.639Z,8.98
2023-04-01T00:12:34.207Z,10.27
2023-04-01T00:15:01.629Z,9.45
2023-04-01T00:17:47.399Z,10.82
2023-04-01T00:20:16.454Z,9.90
2023-04-01T00:22:45.360Z,9.52
2023-04-01T00:25:17.628Z,9.95
2023-04-01T00:27:56.030Z,10.02
2023-04-01T00:30:36.027Z,10.10
2023-04-01T00:33:40.849Z,10.48
2023-04-01T00:36:37.054Z,10.10
2023-04-01T00:39:12.316Z,10.23
2023-04-01T00:44:45.491Z,10.45
2023-04-01T00:47:26.734Z,10.10
2023-04-01T00:50:02.145Z,10.02
2023-04-01T00:52:53.393Z,11.45
2023-04-01T00:55:35.877Z,10.50
2023-04-01T00:58:15.646Z,10.65
2023-04-01T01:01:09.723Z,10.48
2023-04-01T01:04:04.046Z,11.48
2023-04-01T01:06:55.762Z,11.38
2023-04-01T01:09:59.536Z,11.25
2023-04-01T01:13:06.496Z,11.88
2023-04-01T01:16:07.682Z,10.57
2023-04-01T01:23:32.467Z,11.20
2023-04-01T01:26:02.478Z,11.65
2023-04-01T01:28:47.932Z,12.20
2023-04-01T01:31:44.146Z,10.98
2023-04-01T01:34:58.464Z,11.77
2023-04-01T01:37:53.500Z,12.43
2023-04-01T01:40:38.925Z,11.52
2023-04-01T01:43:22.131Z,12.07
2023-04-01T01:45:59.128Z,12.60
2023-04-01T01:49:15.977Z,12.93
2023-04-01T01:51:36.842Z,13.18
2023-04-01T01:54:11.820Z,13.38
2023-04-01T01:56:59.736Z,14.63
2023-04-01T01:59:29.550Z,13.85
2023-04-01T02:02:33.296Z,14.60
2023-04-01T02:08:03.581Z,14.95
2023-04-01T02:11:07.192Z,15.02
2023-04-01T02:14:03.635Z,16.05
2023-04-01T02:17:14.604Z,15.18
2023-04-01T02:20:10.185Z,14.73
2023-04-01T02:22:43.920Z,15.18
2023-04-01T02:25:22.045Z,15.80
2023-04-01T02:27:51.963Z,14.48
2023-04-01T02:30:34.282Z,15.13
2023-04-01T02:33:22.313Z,13.93
2023-04-01T02:36:31.033Z,14.57
2023-04-01T02:39:25.650Z,14.05
2023-04-01T02:41:53.275Z,14.23
2023-04-01T02:44:36.900Z,13.63
2023-04-01T02:47:38.848Z,13.35
2023-04-01T02:50:23.864Z,13.25
2023-04-01T02:53:03.802Z,13.02
2023-04-01T02:55:35.049Z,13.70
2023-04-01T02:58:14.829Z,13.43
2023-04-01T03:00:54.717Z,14.13
2023-04-01T03:03:39.954Z,14.32
2023-04-01T03:06:13.535Z,14.43
2023-04-01T03:08:49.842Z,14.75
2023-04-01T03:11:31.057Z,14.18
2023-04-01T03:14:28.677Z,15.45
2023-04-01T03:16:57.394Z,14.70
2023-04-01T03:20:00.132Z,15.30
2023-04-01T03:22:47.091Z,14.25
2023-04-01T03:25:24.788Z,15.23
2023-04-01T03:27:56.593Z,13.45
2023-04-01T03:30:39.278Z,12.30
2023-04-01T03:33:27.009Z,10.48
2023-04-01T03:36:21.210Z,8.75
2023-04-01T03:38:53.483Z,10.75
2023-04-01T03:41:48.874Z,12.38
2023-04-01T03:44:40.077Z,11.48
2023-04-01T03:47:13.866Z,14.88
2023-04-01T03:50:51.006Z,16.40
2023-04-01T03:53:29.736Z,17.02
2023-04-01T03:56:13.772Z,18.25
2023-04-01T03:58:55.490Z,18.08
2023-04-01T04:01:41.007Z,18.67
2023-04-01T04:05:09.061Z,19.00
2023-04-01T04:07:12.210Z,19.13
2023-04-01T04:10:11.032Z,19.17
2023-04-01T04:12:51.710Z,18.83
2023-04-01T04:19:06.397Z,18.58
2023-04-01T04:21:10.902Z,17.48
2023-04-01T04:23:45.296Z,19.40
2023-04-01T04:26:17.413Z,16.70
2023-04-01T04:29:03.521Z,17.15
2023-04-01T04:32:05.186Z,17.42
2023-04-01T04:34:48.067Z,19.48
2023-04-01T04:37:37.778Z,19.88
2023-04-01T04:40:35.054Z,21.02
2023-04-01T04:43:25.742Z,21.08
2023-04-01T04:47:29.240Z,22.83
2023-04-01T04:49:44.196Z,21.08
2023-04-01T04:52:11.589Z,21.05
2023-04-01T04:55:03.274Z,21.23
2023-04-01T04:57:46.709Z,21.25
2023-04-01T05:00:24.107Z,21.15
2023-04-01T05:03:46.629Z,21.58
2023-04-01T05:06:49.372Z,21.02
2023-04-01T05:09:30.233Z,19.73
2023-04-01T05:12:01.588Z,19.83
2023-04-01T05:14:55.003Z,19.52
2023-04-01T05:17:26.350Z,19.23
2023-04-01T05:19:59.267Z,18.67
2023-04-01T05:25:50.979Z,18.42
2023-04-01T05:28:26.573Z,20.88
2023-04-01T05:31:04.959Z,20.88
2023-04-01T05:34:02.679Z,22.50
2023-04-01T05:36:37.995Z,24.60
2023-04-01T05:39:15.772Z,22.52
2023-04-01T05:41:58.608Z,23.55
2023-04-01T05:44:28.188Z,22.60
2023-04-01T05:47:23.131Z,25.15
2023-04-01T05:50:00.751Z,25.73
2023-04-01T05:52:36.331Z,26.42
2023-04-01T05:55:04.426Z,25.88
2023-04-01T05:57:45.130Z,26.92
2023-04-01T06:00:22.096Z,23.52
2023-04-01T06:02:54.584Z,25.98
2023-04-01T06:05:27.818Z,28.70
2023-04-01T06:08:19.799Z,27.40
2023-04-01T06:11:02.422Z,25.10
2023-04-01T06:14:19.970Z,25.08
2023-04-01T06:17:57.340Z,25.38
2023-04-01T06:21:04.667Z,22.00
2023-04-01T06:30:34.790Z,22.27
2023-04-01T06:33:09.234Z,24.92
2023-04-01T06:36:11.946Z,26.75
2023-04-01T06:39:25.888Z,26.67
2023-04-01T06:42:20.445Z,24.70
2023-04-01T06:45:09.899Z,23.90
2023-04-01T06:48:37.953Z,23.52
2023-04-01T06:52:01.326Z,24.08
2023-04-01T06:55:05.592Z,28.05
2023-04-01T06:59:11.903Z,27.13
2023-04-01T07:02:16.835Z,30.15
2023-04-01T07:05:02.117Z,31.35
2023-04-01T07:07:55.144Z,29.25
2023-04-01T07:10:47.571Z,29.60
2023-04-01T07:14:17.656Z,29.92
2023-04-01T07:17:39.601Z,29.08
2023-04-01T07:20:19.813Z,28.17
2023-04-01T07:26:31.372Z,23.08
2023-04-01T07:29:54.172Z,20.70
2023-04-01T07:32:49.063Z,24.00
2023-04-01T07:36:26.594Z,23.02
2023-04-01T07:39:24.687Z,23.83
2023-04-01T07:42:35.088Z,22.75
2023-04-01T07:45:30.855Z,21.00
2023-04-01T07:48:32.383Z,21.65
2023-04-01T07:51:18.652Z,20.15
2023-04-01T07:53:53.825Z,17.83
2023-04-01T07:56:56.724Z,15.68
2023-04-01T08:00:01.225Z,14.07
2023-04-01T08:02:56.251Z,9.07
2023-04-01T08:05:29.499Z,8.48
2023-04-01T08:08:22.437Z,7.05
2023-04-01T08:11:49.969Z,5.75
2023-04-01T08:14:38.695Z,6.18
2023-04-01T08:17:53.493Z,4.70
2023-04-01T08:20:26.390Z,4.05
2023-04-01T08:23:16.457Z,4.50
2023-04-01T08:26:10.060Z,4.53
2023-04-01T08:28:41.036Z,4.40
2023-04-01T08:31:27.502Z,3.53
2023-04-01T08:33:55.737Z,3.30
2023-04-01T08:36:29.609Z,2.40
2023-04-01T08:39:33.116Z,2.95
2023-04-01T08:42:24.372Z,2.15
2023-04-01T08:45:04.420Z,3.13
2023-04-01T08:47:53.847Z,3.00
2023-04-01T08:50:39.994Z,3.40
2023-04-01T08:53:51.261Z,4.05
2023-04-01T08:56:32.235Z,3.97
2023-04-01T09:02:01.711Z,4.03
2023-04-01T09:05:38.661Z,4.30
2023-04-01T09:08:20.700Z,3.33
2023-04-01T09:11:09.434Z,3.80
2023-04-01T09:14:26.964Z,3.97
2023-04-01T09:17:27.359Z,4.35
2023-04-01T09:20:20.093Z,3.45
2023-04-01T09:22:56.639Z,3.65
2023-04-01T09:25:48.536Z,2.95
2023-04-01T09:28:21.326Z,2.58
2023-04-01T09:30:58.100Z,2.88
2023-04-01T09:33:50.344Z,2.97
2023-04-01T09:36:30.198Z,3.10
2023-04-01T09:39:00.464Z,2.60
2023-04-01T09:41:37.937Z,3.30
2023-04-01T09:44:26.048Z,2.63
2023-04-01T09:47:37.646Z,4.15
2023-04-01T09:50:07.804Z,4.38
2023-04-01T09:53:03.648Z,4.22
2023-04-01T09:55:45.113Z,2.97
2023-04-01T09:58:31.004Z,2.85
2023-04-01T10:01:26.573Z,3.08
2023-04-01T10:04:37.935Z,2.92
2023-04-01T10:07:22.619Z,2.88
2023-04-01T10:10:05.148Z,2.63
2023-04-01T10:13:09.750Z,2.45
2023-04-01T10:15:58.402Z,2.45
2023-04-01T10:18:53.455Z,2.22
2023-04-01T10:21:34.657Z,2.40
2023-04-01T10:24:20.333Z,2.97
2023-04-01T10:27:10.911Z,3.55
2023-04-01T10:30:24.395Z,2.90
2023-04-01T10:33:28.688Z,2.35
2023-04-01T10:36:17.404Z,2.45
2023-04-01T10:39:03.970Z,1.90
2023-04-01T10:42:02.574Z,2.03
2023-04-01T10:44:35.746Z,2.33
2023-04-01T10:47:25.816Z,2.53
2023-04-01T10:50:04.851Z,2.38
2023-04-01T10:52:34.901Z,1.85
2023-04-01T10:56:12.316Z,2.10
2023-04-01T10:59:37.008Z,2.00
2023-04-01T11:02:41.642Z,3.30
2023-04-01T11:05:53.657Z,2.05
2023-04-01T11:08:48.745Z,2.70
2023-04-01T11:11:38.068Z,3.28
2023-04-01T11:14:20.650Z,3.53
2023-04-01T11:17:08.160Z,2.55
2023-04-01T11:20:13.102Z,1.90
2023-04-01T11:23:01.945Z,2.25
2023-04-01T11:25:47.963Z,1.67
2023-04-01T11:28:42.774Z,2.25
2023-04-01T11:31:37.597Z,1.98
2023-04-01T11:34:42.818Z,1.88
2023-04-01T11:37:10.407Z,1.60
2023-04-01T11:40:18.103Z,2.28
2023-04-01T11:43:41.374Z,2.05
2023-04-01T11:46:34.965Z,3.22
2023-04-01T11:49:07.059Z,2.30
2023-04-01T11:51:45.133Z,2.15
2023-04-01T11:54:36.828Z,1.73
2023-04-01T11:57:34.949Z,2.10
2023-04-01T12:00:46.115Z,2.60
2023-04-01T12:03:41.632Z,2.00
2023-04-01T12:06:23.389Z,2.20
2023-04-01T12:09:02.202Z,2.30
2023-04-01T12:11:44.232Z,2.15
2023-04-01T12:14:36.358Z,1.55
2023-04-01T12:17:30.289Z,1.88
2023-04-01T12:20:12.069Z,1.90
2023-04-01T12:23:08.150Z,2.50
2023-04-01T12:25:37.906Z,2.13
2023-04-01T12:28:18.804Z,2.80
2023-04-01T12:31:03.892Z,2.58
2023-04-01T12:33:38.425Z,1.73
2023-04-01T12:36:29.089Z,2.10
2023-04-01T12:39:27.679Z,1.85
2023-04-01T12:42:12.459Z,2.55
2023-04-01T12:45:13.917Z,2.13
2023-04-01T12:48:11.295Z,1.75
2023-04-01T12:50:47.788Z,1.67
2023-04-01T12:53:43.210Z,1.60
2023-04-01T12:56:35.886Z,1.45
2023-04-01T12:59:21.595Z,2.53
2023-04-01T13:02:26.785Z,1.80
2023-04-01T13:05:29.137Z,2.55
2023-04-01T13:08:05.570Z,1.52
2023-04-01T13:10:32.619Z,1.98
2023-04-01T13:13:27.113Z,2.35
2023-04-01T13:16:08.409Z,1.98
2023-04-01T13:18:51.611Z,2.50
2023-04-01T13:23:54.616Z,1.90
2023-04-01T13:26:39.789Z,2.15
2023-04-01T13:29:44.873Z,2.40
2023-04-01T13:32:42.970Z,2.67
2023-04-01T13:35:52.261Z,2.58
2023-04-01T13:38:34.236Z,1.90
2023-04-01T13:41:13.120Z,2.97
2023-04-01T13:43:51.997Z,2.17
2023-04-01T13:46:37.018Z,2.20
2023-04-01T13:49:12.883Z,1.80
2023-04-01T13:51:42.625Z,2.15
2023-04-01T13:54:13.621Z,2.40
2023-04-01T13:56:46.568Z,2.00
2023-04-01T14:02:26.941Z,1.80
2023-04-01T14:05:15.802Z,2.83
2023-04-01T14:08:13.704Z,2.40
2023-04-01T14:10:43.469Z,3.00
2023-04-01T14:14:01.441Z,2.85
2023-04-01T14:17:08.911Z,3.90
2023-04-01T14:20:04.395Z,3.45
2023-04-01T14:22:59.600Z,4.43
2023-04-01T14:26:04.844Z,4.18
2023-04-01T14:29:00.864Z,4.10
2023-04-01T14:31:51.877Z,5.05
2023-04-01T14:34:50.296Z,4.32
2023-04-01T14:37:51.213Z,5.70
2023-04-01T14:40:40.034Z,5.20
2023-04-01T14:43:29.671Z,4.90
2023-04-01T14:46:05.061Z,5.00
2023-04-01T14:48:43.986Z,5.70
2023-04-01T14:51:23.569Z,5.60
2023-04-01T14:54:13.525Z,5.35
2023-04-01T14:56:52.129Z,5.35
2023-04-01T14:59:21.992Z,6.07
2023-04-01T15:02:02.146Z,6.22
2023-04-01T15:04:53.746Z,5.00
2023-04-01T15:07:39.884Z,6.38
2023-04-01T15:10:44.354Z,5.80
2023-04-01T15:13:20.361Z,5.95
2023-04-01T15:16:09.200Z,7.40
2023-04-01T15:18:58.090Z,6.30
2023-04-01T15:22:02.880Z,6.18
2023-04-01T15:25:05.745Z,6.88
2023-04-01T15:27:43.850Z,6.00
2023-04-01T15:30:30.935Z,6.32
2023-04-01T15:33:18.865Z,5.30
2023-04-01T15:36:10.782Z,6.13
2023-04-01T15:38:48.968Z,5.57
2023-04-01T15:41:41.299Z,6.05
2023-04-01T15:44:47.435Z,5.88
2023-04-01T15:47:26.846Z,5.55
2023-04-01T15:50:04.118Z,6.53
2023-04-01T15:53:05.465Z,5.97
2023-04-01T15:55:57.640Z,6.80
2023-04-01T15:59:06.303Z,6.90
2023-04-01T16:02:24.110Z,6.18
2023-04-01T16:05:14.501Z,7.00
2023-04-01T16:08:06.110Z,6.00
2023-04-01T16:11:09.849Z,6.40
2023-04-01T16:13:48.861Z,6.88
2023-04-01T16:16:35.229Z,6.47
2023-04-01T16:19:20.470Z,5.80
2023-04-01T16:21:54.727Z,6.85
2023-04-01T16:24:44.284Z,6.32
2023-04-01T16:27:23.494Z,6.43
2023-04-01T16:29:59.300Z,6.82
2023-04-01T16:32:35.463Z,7.20
2023-04-01T16:35:18.670Z,6.72
2023-04-01T16:40:39.272Z,7.03
2023-04-01T16:43:31.673Z,7.60
2023-04-01T16:46:16.063Z,8.48
2023-04-01T16:49:21.209Z,7.30
2023-04-01T16:52:01.725Z,8.65
2023-04-01T16:54:40.786Z,7.40
2023-04-01T16:57:11.167Z,7.47
2023-04-01T16:59:45.379Z,7.20
2023-04-01T17:02:18.577Z,8.43
2023-04-01T17:05:01.324Z,10.05
2023-04-01T17:07:34.458Z,7.55
2023-04-01T17:10:38.436Z,7.07
2023-04-01T17:13:21.801Z,7.32
2023-04-01T17:16:13.521Z,8.02
2023-04-01T17:19:01.503Z,7.20
2023-04-01T17:22:02.535Z,7.07
2023-04-01T17:24:48.909Z,6.80
2023-04-01T17:27:28.269Z,6.38
2023-04-01T17:30:10.007Z,6.78
2023-04-01T17:33:15.303Z,7.05
2023-04-01T17:36:04.277Z,5.70
2023-04-01T17:38:44.852Z,5.43
2023-04-01T17:41:44.851Z,5.85
2023-04-01T17:44:43.202Z,7.32
2023-04-01T17:47:28.839Z,5.35
2023-04-01T17:50:10.142Z,5.55
2023-04-01T17:53:15.037Z,5.68
2023-04-01T17:55:49.594Z,6.88
2023-04-01T17:58:22.534Z,7.93
2023-04-01T18:01:01.464Z,6.35
2023-04-01T18:03:34.474Z,7.72
2023-04-01T18:06:27.904Z,6.40
2023-04-01T18:09:16.578Z,5.80
2023-04-01T18:11:53.670Z,5.50
2023-04-01T18:14:59.337Z,5.78
2023-04-01T18:17:44.788Z,6.00
2023-04-01T18:20:59.739Z,5.82
2023-04-01T18:23:44.550Z,6.47
2023-04-01T18:26:35.357Z,6.18
2023-04-01T18:29:13.536Z,6.60
2023-04-01T18:31:45.677Z,6.32
2023-04-01T18:34:45.061Z,5.78
2023-04-01T18:37:40.518Z,5.90
2023-04-01T18:40:29.507Z,7.07
2023-04-01T18:43:39.046Z,7.38
2023-04-01T18:46:25.747Z,6.45
2023-04-01T18:49:08.264Z,7.05
2023-04-01T18:51:56.895Z,6.63
2023-04-01T18:54:57.955Z,4.95
2023-04-01T18:57:30.093Z,6.00
2023-04-01T19:00:05.633Z,6.50
2023-04-01T19:02:41.346Z,6.45
2023-04-01T19:05:37.793Z,6.53
2023-04-01T19:08:26.637Z,7.32
2023-04-01T19:11:04.830Z,6.85
2023-04-01T19:14:01.612Z,8.32
2023-04-01T19:16:40.661Z,7.22
2023-04-01T19:19:23.253Z,7.38
2023-04-01T19:21:53.952Z,4.53
2023-04-01T19:24:54.549Z,6.35
2023-04-01T19:27:43.683Z,5.85
2023-04-01T19:30:28.580Z,6.15
2023-04-01T19:33:04.536Z,6.03
2023-04-01T19:35:37.464Z,6.32
2023-04-01T19:38:15.652Z,7.43
2023-04-01T19:40:57.559Z,5.50
2023-04-01T19:43:27.415Z,5.60
2023-04-01T19:46:32.907Z,5.93
2023-04-01T19:49:33.696Z,7.10
2023-04-01T19:52:04.811Z,5.75
2023-04-01T19:54:48.919Z,5.40
2023-04-01T19:57:46.678Z,5.78
2023-04-01T20:00:26.412Z,4.65
2023-04-01T20:03:27.683Z,5.72
2023-04-01T20:06:22.827Z,5.75
2023-04-01T20:09:14.492Z,6.10
2023-04-01T20:11:58.578Z,5.00
2023-04-01T20:14:46.821Z,4.63
2023-04-01T20:17:31.221Z,5.88
2023-04-01T20:20:11.028Z,4.75
2023-04-01T20:22:47.216Z,4.85
2023-04-01T20:25:32.038Z,4.65
2023-04-01T20:28:13.189Z,5.93
2023-04-01T20:31:04.259Z,4.63
2023-04-01T20:33:43.232Z,4.03
2023-04-01T20:36:30.534Z,4.32
2023-04-01T20:39:35.690Z,4.43
2023-04-01T20:42:36.662Z,4.22
2023-04-01T20:45:56.041Z,4.15
2023-04-01T20:48:43.972Z,4.75
2023-04-01T20:51:15.700Z,4.25
2023-04-01T20:53:45.765Z,5.35
2023-04-01T20:56:23.865Z,4.50
2023-04-01T20:59:28.223Z,4.50
2023-04-01T21:02:10.160Z,4.55
2023-04-01T21:04:59.073Z,4.18
2023-04-01T21:08:07.919Z,3.65
2023-04-01T21:10:49.927Z,5.28
2023-04-01T21:13:23.190Z,5.88
2023-04-01T21:15:54.192Z,5.10
2023-04-01T21:18:31.025Z,4.97
2023-04-01T21:21:39.238Z,4.35
2023-04-01T21:24:33.803Z,3.90
2023-04-01T21:27:37.615Z,4.72
2023-04-01T21:33:13.718Z,3.63
2023-04-01T21:36:26.098Z,3.85
2023-04-01T21:39:14.938Z,3.95
2023-04-01T21:41:56.864Z,4.25
2023-04-01T21:44:32.860Z,4.30
2023-04-01T21:47:35.413Z,4.10
2023-04-01T21:50:29.085Z,3.22
2023-04-01T21:53:26.241Z,3.92
2023-04-01T21:56:12.308Z,3.60
2023-04-01T21:59:19.614Z,3.75
2023-04-01T22:02:08.681Z,3.40
2023-04-01T22:05:01.730Z,3.83
2023-04-01T22:08:10.223Z,3.95
2023-04-01T22:10:48.150Z,3.10
2023-04-01T22:13:27.729Z,3.63
2023-04-01T22:16:18.162Z,4.05
2023-04-01T22:19:23.081Z,4.10
2023-04-01T22:22:08.900Z,4.13
2023-04-01T22:24:56.403Z,3.08
2023-04-01T22:27:39.696Z,5.68
2023-04-01T22:30:07.958Z,4.80
2023-04-01T22:32:36.542Z,2.90
2023-04-01T22:35:16.235Z,3.92
2023-04-01T22:38:10.883Z,3.35
2023-04-01T22:40:50.325Z,3.97
2023-04-01T22:43:28.482Z,3.60
2023-04-01T22:46:06.645Z,3.28
2023-04-01T22:48:42.594Z,3.15
2023-04-01T22:51:20.047Z,3.95
2023-04-01T22:54:27.080Z,3.17
2023-04-01T22:57:09.576Z,3.13
2023-04-01T22:59:43.159Z,3.58
2023-04-01T23:02:43.798Z,3.25
2023-04-01T23:05:16.289Z,2.67
2023-04-01T23:08:02.153Z,3.13
2023-04-01T23:10:47.874Z,2.80
2023-04-01T23:13:23.795Z,4.05
2023-04-01T23:15:53.846Z,3.05
2023-04-01T23:18:25.593Z,3.47
2023-04-01T23:21:17.943Z,3.80
2023-04-01T23:23:50.833Z,3.97
2023-04-01T23:26:36.220Z,3.20
2023-04-01T23:29:04.905Z,3.40
2023-04-01T23:31:39.529Z,3.00
2023-04-01T23:34:12.609Z,3.78
2023-04-01T23:39:23.722Z,2.90
2023-04-01T23:41:56.731Z,3.30
2023-04-01T23:46:54.377Z,3.28
2023-04-01T23:49:50.359Z,3.50
2023-04-01T23:52:35.856Z,3.42
2023-04-01T23:55:05.332Z,3.58
2023-04-01T23:57:35.101Z,2.80
